Time;durP1;ratioP1;P1;durP2;ratioP2;P2;SDS_P1;SDS_P2;PMS_P1;PMS_P2;Temp;Humidity;BMP_temperature;BMP_pressure;BME280_temperature;BME280_humidity;BME280_pressure;Samples;Min_cycle;Max_cycle;Signal;HPM_P1;HPM_P2
2023/10/12 00:01:26;;;;;;;1.50;0.60;;;17.50;99.90;;;;;;5115740;28;20428;-61
2023/10/12 00:03:59;;;;;;;1.40;0.70;;;17.60;99.90;;;;;;5115984;28;20857;-61
2023/10/12 00:06:30;;;;;;;2.90;0.80;;;17.60;99.90;;;;;;5115686;28;20416;-61
2023/10/12 00:08:57;;;;;;;2.65;0.88;;;17.50;99.90;;;;;;5115322;28;20420;-62
2023/10/12 00:11:37;;;;;;;2.80;0.80;;;17.50;99.90;;;;;;5115638;28;20756;-61
2023/10/12 00:14:05;;;;;;;1.88;0.80;;;17.50;99.90;;;;;;5114561;28;20467;-61
2023/10/12 00:16:35;;;;;;;3.10;0.80;;;17.50;99.90;;;;;;5115136;28;20424;-62
2023/10/12 00:19:03;;;;;;;1.23;0.70;;;17.40;99.90;;;;;;5115811;28;20481;-61
2023/10/12 00:21:35;;;;;;;2.88;0.90;;;17.40;99.90;;;;;;5114809;28;20424;-61
2023/10/12 00:24:02;;;;;;;2.72;0.70;;;17.30;99.90;;;;;;5115461;28;20408;-61
2023/10/12 00:26:31;;;;;;;2.00;0.70;;;17.30;1.00;;;;;;5115252;28;20428;-61
2023/10/12 00:28:58;;;;;;;1.63;0.80;;;17.20;1.00;;;;;;5115260;28;20523;-61
2023/10/12 00:31:25;;;;;;;3.20;0.80;;;17.20;1.00;;;;;;5115387;28;20425;-61
2023/10/12 00:33:54;;;;;;;1.50;0.60;;;17.20;1.00;;;;;;5115482;28;20733;-60
2023/10/12 00:36:21;;;;;;;1.90;0.70;;;17.20;1.00;;;;;;5115533;28;20431;-61
2023/10/12 00:38:51;;;;;;;1.10;0.80;;;17.20;1.00;;;;;;5114363;28;20540;-61
2023/10/12 00:41:19;;;;;;;1.80;0.70;;;17.20;1.00;;;;;;5113863;28;20428;-60
2023/10/12 00:43:50;;;;;;;1.42;0.70;;;17.20;1.00;;;;;;5115169;28;20427;-61
2023/10/12 00:46:21;;;;;;;2.10;0.80;;;17.20;1.00;;;;;;5114780;28;20435;-61
2023/10/12 00:48:50;;;;;;;1.90;0.70;;;17.20;1.00;;;;;;5115003;28;20955;-61
2023/10/12 00:51:20;;;;;;;1.38;0.80;;;17.20;1.00;;;;;;5114952;28;20416;-60
2023/10/12 00:53:55;;;;;;;1.10;0.80;;;17.10;1.00;;;;;;5113546;28;20934;-60
2023/10/12 00:56:23;;;;;;;1.40;0.70;;;17.10;1.00;;;;;;5115242;28;20424;-61
2023/10/12 00:58:54;;;;;;;1.90;0.73;;;17.10;1.00;;;;;;5115388;28;20469;-61
2023/10/12 01:01:22;;;;;;;1.90;0.70;;;17.10;1.00;;;;;;5115450;28;20432;-60
2023/10/12 01:03:50;;;;;;;1.42;0.80;;;17.10;1.00;;;;;;5113614;28;20793;-61
2023/10/12 01:06:28;;;;;;;1.40;0.60;;;17.00;1.00;;;;;;5115107;28;20879;-60
2023/10/12 01:08:59;;;;;;;3.50;0.90;;;16.90;1.00;;;;;;5114431;28;20416;-60
2023/10/12 01:11:27;;;;;;;2.20;0.82;;;16.70;99.90;;;;;;5114359;28;20420;-61
2023/10/12 01:14:05;;;;;;;3.10;0.80;;;16.60;99.90;;;;;;5114621;28;20439;-61
2023/10/12 01:16:45;;;;;;;1.92;0.80;;;16.60;99.90;;;;;;5114536;28;20424;-60
2023/10/12 01:19:20;;;;;;;1.70;0.70;;;16.60;1.00;;;;;;5114155;28;20858;-61
2023/10/12 01:21:49;;;;;;;1.45;0.80;;;16.60;1.00;;;;;;5113778;28;20451;-61
2023/10/12 01:24:17;;;;;;;1.20;0.60;;;16.60;1.00;;;;;;5114342;28;20408;-60
2023/10/12 01:26:45;;;;;;;2.00;0.70;;;16.70;99.90;;;;;;5115424;28;20723;-61
2023/10/12 01:29:19;;;;;;;1.40;0.70;;;16.70;99.90;;;;;;5114426;28;20431;-61
2023/10/12 01:31:52;;;;;;;1.20;0.70;;;16.70;99.90;;;;;;5114346;28;20527;-59
2023/10/12 01:34:24;;;;;;;2.13;0.80;;;16.80;99.90;;;;;;5113663;28;20874;-60
2023/10/12 01:36:55;;;;;;;1.45;0.68;;;16.80;99.90;;;;;;5113419;28;20420;-60
2023/10/12 01:39:24;;;;;;;2.30;0.80;;;16.80;99.90;;;;;;5113933;28;20427;-59
2023/10/12 01:41:55;;;;;;;2.70;0.80;;;16.80;99.90;;;;;;5114938;28;20790;-60
2023/10/12 01:44:23;;;;;;;1.90;0.70;;;16.90;99.90;;;;;;5114562;28;20420;-60
2023/10/12 01:46:50;;;;;;;2.80;0.80;;;16.90;99.90;;;;;;5114018;28;20431;-60
2023/10/12 01:49:18;;;;;;;3.20;0.70;;;16.80;99.90;;;;;;5112696;28;20516;-60
2023/10/12 01:51:46;;;;;;;1.60;0.70;;;16.80;99.90;;;;;;5113235;28;20761;-60
2023/10/12 01:54:22;;;;;;;1.60;0.70;;;16.80;99.90;;;;;;5115983;28;20790;-60
2023/10/12 01:56:52;;;;;;;1.80;0.77;;;16.80;99.90;;;;;;5116140;28;20493;-60
2023/10/12 01:59:20;;;;;;;1.92;0.80;;;16.80;99.90;;;;;;5115971;28;20463;-60
2023/10/12 02:01:53;;;;;;;1.10;0.70;;;16.80;99.90;;;;;;5116264;28;20477;-60
2023/10/12 02:04:21;;;;;;;2.08;0.80;;;17.00;99.90;;;;;;5117039;28;20485;-60
2023/10/12 02:06:48;;;;;;;1.80;0.70;;;17.20;1.00;;;;;;5118510;28;20488;-60
2023/10/12 02:09:22;;;;;;;2.65;0.70;;;17.40;1.00;;;;;;5117502;28;20492;-60
2023/10/12 02:11:54;;;;;;;2.10;0.80;;;17.70;1.00;;;;;;5117400;28;20427;-61
2023/10/12 02:14:24;;;;;;;1.23;0.60;;;17.90;1.00;;;;;;5117411;28;20432;-60
2023/10/12 02:16:54;;;;;;;1.10;0.60;;;18.10;99.90;;;;;;5117692;28;20424;-60
2023/10/12 02:19:31;;;;;;;1.20;0.70;;;18.20;99.90;;;;;;5117253;28;20850;-60
2023/10/12 02:22:01;;;;;;;1.77;0.70;;;18.30;99.90;;;;;;5117641;28;20424;-60
2023/10/12 02:24:29;;;;;;;1.65;0.80;;;18.40;99.90;;;;;;5116702;28;20418;-60
2023/10/12 02:27:00;;;;;;;2.43;0.60;;;18.50;99.90;;;;;;5116708;28;20416;-61
2023/10/12 02:29:30;;;;;;;1.80;0.70;;;18.50;99.90;;;;;;5117330;28;20420;-60
2023/10/12 02:32:06;;;;;;;1.80;1.00;;;18.60;99.90;;;;;;5117478;28;20424;-61
2023/10/12 02:34:34;;;;;;;1.83;0.70;;;18.60;99.90;;;;;;5117390;28;20438;-60
2023/10/12 02:37:16;;;;;;;1.20;0.80;;;18.60;99.90;;;;;;5117101;28;20420;-60
2023/10/12 02:39:46;;;;;;;1.75;0.75;;;18.60;99.90;;;;;;5116355;28;20484;-60
2023/10/12 02:42:18;;;;;;;2.50;0.70;;;18.60;99.90;;;;;;5116431;28;20418;-60
2023/10/12 02:45:08;;;;;;;2.00;0.70;;;18.60;99.90;;;;;;5116651;28;20719;-60
2023/10/12 02:47:39;;;;;;;2.70;0.70;;;18.60;99.90;;;;;;5117488;28;20424;-61
2023/10/12 02:50:15;;;;;;;2.40;0.80;;;18.70;99.90;;;;;;5117363;28;20424;-61
2023/10/12 02:52:44;;;;;;;1.38;0.80;;;18.70;95.30;;;;;;5116403;28;20481;-61
2023/10/12 02:55:25;;;;;;;1.10;0.65;;;18.80;85.30;;;;;;5117227;28;20468;-61
2023/10/12 02:57:56;;;;;;;1.95;0.80;;;18.70;86.20;;;;;;5116942;27;20430;-60
2023/10/12 03:00:23;;;;;;;2.90;0.80;;;18.70;68.70;;;;;;5116560;28;20506;-60
2023/10/12 03:02:53;;;;;;;2.60;0.70;;;18.70;65.80;;;;;;5116156;28;20726;-60
2023/10/12 03:05:32;;;;;;;2.13;0.80;;;18.70;51.10;;;;;;5115339;28;20420;-61
2023/10/12 03:08:06;;;;;;;1.88;0.73;;;18.70;46.20;;;;;;5117065;28;20426;-61
2023/10/12 03:10:45;;;;;;;1.13;0.70;;;18.70;43.80;;;;;;5115891;27;20416;-61
2023/10/12 03:13:23;;;;;;;2.72;0.80;;;18.70;42.80;;;;;;5116446;28;20423;-60
2023/10/12 03:15:57;;;;;;;1.83;0.85;;;18.60;43.10;;;;;;5115988;28;20731;-61
2023/10/12 03:18:26;;;;;;;2.00;0.70;;;18.70;46.00;;;;;;5116177;28;20459;-61
2023/10/12 03:21:02;;;;;;;1.80;0.73;;;18.60;46.40;;;;;;5116847;28;20412;-61
2023/10/12 03:23:33;;;;;;;1.95;0.80;;;18.70;34.70;;;;;;5116381;28;20452;-61
2023/10/12 03:26:06;;;;;;;1.20;0.70;;;18.70;31.50;;;;;;5116617;28;20435;-61
2023/10/12 03:28:44;;;;;;;2.00;0.60;;;18.70;19.40;;;;;;5116543;28;20784;-60
2023/10/12 03:31:22;;;;;;;1.90;0.75;;;18.80;12.30;;;;;;5116426;28;20835;-61
2023/10/12 03:33:59;;;;;;;1.13;0.70;;;18.90;1.90;;;;;;5116514;28;20424;-61
2023/10/12 03:36:32;;;;;;;2.00;0.70;;;18.90;1.60;;;;;;5116267;28;20416;-61
2023/10/12 03:39:13;;;;;;;1.73;0.70;;;18.90;1.00;;;;;;5114879;28;20419;-61
2023/10/12 03:44:41;;;;;;;2.30;0.73;;;19.00;1.00;;;;;;5112624;28;20416;-61
2023/10/12 03:47:16;;;;;;;1.40;0.68;;;19.00;1.00;;;;;;5113226;28;20485;-61
2023/10/12 03:49:58;;;;;;;2.70;0.60;;;19.10;1.00;;;;;;5112108;28;20424;-61
2023/10/12 03:52:29;;;;;;;3.10;0.70;;;19.10;1.00;;;;;;5111935;28;20701;-61
2023/10/12 03:55:16;;;;;;;1.20;0.60;;;19.10;1.00;;;;;;5113988;28;20439;-61
2023/10/12 03:57:50;;;;;;;1.70;0.70;;;19.10;1.00;;;;;;5115266;28;20434;-61
2023/10/12 04:00:32;;;;;;;1.20;0.65;;;19.10;1.00;;;;;;5116305;28;20473;-61
2023/10/12 04:03:04;;;;;;;1.20;0.70;;;19.10;1.00;;;;;;5115911;28;20416;-61
2023/10/12 04:05:46;;;;;;;2.43;0.70;;;19.20;1.00;;;;;;5115775;28;20511;-61
2023/10/12 04:08:19;;;;;;;1.10;0.50;;;19.20;1.00;;;;;;5113619;28;20424;-61
2023/10/12 04:16:27;;;;;;;3.92;0.80;;;19.10;1.00;;;;;;5110230;28;20411;-60
2023/10/12 04:19:03;;;;;;;1.88;0.70;;;19.10;1.00;;;;;;5112081;28;20428;-61
2023/10/12 04:21:36;;;;;;;1.10;0.70;;;19.00;1.00;;;;;;5112052;28;20415;-60
2023/10/12 04:27:09;;;;;;;1.30;0.70;;;18.90;1.00;;;;;;5114178;28;20396;-61
2023/10/12 04:29:39;;;;;;;1.70;0.70;;;18.90;1.00;;;;;;5115365;28;20514;-61
2023/10/12 04:32:17;;;;;;;3.70;0.70;;;18.90;1.00;;;;;;5115197;28;20424;-61
2023/10/12 04:34:49;;;;;;;1.83;0.70;;;18.80;1.00;;;;;;5113655;28;20468;-61
2023/10/12 04:37:25;;;;;;;1.27;0.70;;;18.80;1.00;;;;;;5112673;28;20861;-60
2023/10/12 04:39:56;;;;;;;3.47;0.63;;;18.80;1.00;;;;;;5114826;28;20428;-60
2023/10/12 04:42:33;;;;;;;2.85;0.70;;;18.90;1.00;;;;;;5114650;28;20423;-59
2023/10/12 04:45:23;;;;;;;2.70;0.80;;;18.80;1.00;;;;;;5114947;28;20414;-60
2023/10/12 04:47:57;;;;;;;1.90;0.70;;;18.80;1.00;;;;;;5111872;28;20512;-60
2023/10/12 04:50:43;;;;;;;1.10;0.70;;;18.80;1.00;;;;;;5111908;28;20451;-60
2023/10/12 04:53:12;;;;;;;1.97;0.70;;;18.70;1.00;;;;;;5113327;28;20519;-60
2023/10/12 04:55:47;;;;;;;1.30;0.77;;;18.80;1.00;;;;;;5113862;28;20435;-62
2023/10/12 04:58:31;;;;;;;1.40;0.60;;;18.70;1.00;;;;;;5112654;28;20428;-61
2023/10/12 05:01:13;;;;;;;3.33;0.80;;;18.70;1.00;;;;;;5112900;28;20431;-62
2023/10/12 05:03:41;;;;;;;2.75;0.80;;;18.70;1.00;;;;;;5114024;28;20817;-61
2023/10/12 05:06:13;;;;;;;2.73;0.80;;;18.70;1.00;;;;;;5112899;28;20412;-61
2023/10/12 05:08:41;;;;;;;1.15;0.60;;;18.70;1.00;;;;;;5113339;28;20424;-62
2023/10/12 05:11:08;;;;;;;1.83;0.80;;;18.70;1.00;;;;;;5113501;28;20793;-62
2023/10/12 05:13:43;;;;;;;1.80;0.80;;;18.80;1.00;;;;;;5112007;28;20428;-61
2023/10/12 05:16:14;;;;;;;1.70;0.70;;;18.70;1.00;;;;;;5110578;28;20427;-61
2023/10/12 05:18:41;;;;;;;1.60;0.80;;;18.80;1.00;;;;;;5113599;28;20440;-62
2023/10/12 05:21:10;;;;;;;1.63;0.70;;;18.80;1.00;;;;;;5112575;28;20419;-62
2023/10/12 05:23:38;;;;;;;4.00;0.90;;;18.80;1.00;;;;;;5111093;28;20420;-61
2023/10/12 05:26:11;;;;;;;1.67;0.90;;;18.80;1.00;;;;;;5110339;28;20775;-59
2023/10/12 05:28:47;;;;;;;1.70;0.80;;;18.80;1.00;;;;;;5116104;28;20430;-62
2023/10/12 05:31:20;;;;;;;1.50;0.80;;;18.80;1.00;;;;;;5115471;28;20827;-61
2023/10/12 05:36:31;;;;;;;1.58;0.80;;;18.80;1.00;;;;;;5113241;28;20424;-61
2023/10/12 05:39:12;;;;;;;2.13;0.90;;;18.80;1.00;;;;;;5113976;28;20478;-61
2023/10/12 05:41:40;;;;;;;1.25;0.70;;;18.90;1.00;;;;;;5117020;28;20858;-61
2023/10/12 05:44:15;;;;;;;1.50;0.70;;;18.90;1.00;;;;;;5116273;28;20411;-61
2023/10/12 05:46:51;;;;;;;1.85;0.80;;;18.90;1.00;;;;;;5116189;28;20455;-61
2023/10/12 05:49:23;;;;;;;1.90;0.63;;;18.90;1.00;;;;;;5116688;27;20424;-61
2023/10/12 05:51:50;;;;;;;1.20;0.70;;;18.90;1.00;;;;;;5103561;28;20432;-61
2023/10/12 05:54:20;;;;;;;1.42;0.70;;;18.90;1.00;;;;;;5098235;28;20809;-61
2023/10/12 05:56:49;;;;;;;1.70;0.75;;;18.90;1.00;;;;;;5099957;28;20424;-61
2023/10/12 05:59:18;;;;;;;1.88;0.70;;;19.00;1.00;;;;;;5102947;28;20429;-60
2023/10/12 06:01:48;;;;;;;3.60;0.80;;;19.00;1.00;;;;;;5112236;28;20548;-59
2023/10/12 06:04:19;;;;;;;2.08;0.75;;;19.10;1.00;;;;;;5109935;28;20432;-60
2023/10/12 06:06:47;;;;;;;1.95;0.70;;;19.20;1.00;;;;;;5102670;28;20536;-60
2023/10/12 06:09:20;;;;;;;2.60;0.90;;;19.20;1.00;;;;;;5102841;28;20804;-60
2023/10/12 06:11:48;;;;;;;2.05;0.90;;;19.20;1.00;;;;;;5097334;28;20731;-59
2023/10/12 06:14:20;;;;;;;2.30;0.90;;;19.30;1.00;;;;;;5097204;28;20744;-59
2023/10/12 06:16:54;;;;;;;1.40;0.70;;;19.30;1.00;;;;;;5114212;28;20408;-59
2023/10/12 06:19:26;;;;;;;1.60;0.70;;;19.40;1.00;;;;;;5108347;28;20778;-60
2023/10/12 06:21:53;;;;;;;1.50;0.80;;;19.40;1.00;;;;;;5098604;28;20491;-58
2023/10/12 06:24:33;;;;;;;3.55;0.70;;;19.40;1.00;;;;;;5091947;28;20736;-58
2023/10/12 06:27:02;;;;;;;2.10;0.70;;;19.40;1.00;;;;;;5108583;28;20446;-58
2023/10/12 06:29:30;;;;;;;1.42;0.80;;;19.40;1.00;;;;;;5103764;28;20930;-59
2023/10/12 06:31:59;;;;;;;2.05;0.70;;;19.50;1.00;;;;;;5094898;28;20434;-58
2023/10/12 06:34:29;;;;;;;1.38;0.90;;;19.50;1.00;;;;;;5092669;28;20513;-58
2023/10/12 06:37:11;;;;;;;1.83;0.80;;;19.50;1.00;;;;;;5091274;28;20448;-59
2023/10/12 06:40:16;;;;;;;1.50;0.70;;;19.60;1.00;;;;;;5097094;28;20442;-60
2023/10/12 06:42:27;;;;;;;4.80;0.80;;;19.60;1.00;;;;;;5094051;28;20420;-59
2023/10/12 06:44:54;;;;;;;2.55;0.70;;;19.60;17.90;;;;;;5098015;28;20444;-58
2023/10/12 06:47:33;;;;;;;1.60;0.70;;;19.70;26.30;;;;;;5104994;28;20435;-60
2023/10/12 06:50:00;;;;;;;1.73;0.80;;;19.80;24.20;;;;;;5111424;28;20431;-60
2023/10/12 06:52:28;;;;;;;3.07;0.80;;;19.80;13.40;;;;;;5107095;28;20430;-60
2023/10/12 06:54:59;;;;;;;3.67;0.90;;;19.90;22.00;;;;;;5103997;28;20745;-61
2023/10/12 06:57:36;;;;;;;2.25;0.90;;;19.90;1.00;;;;;;5111049;28;20854;-59
2023/10/12 07:00:33;;;;;;;1.70;0.85;;;20.00;1.00;;;;;;5112044;28;20416;-59
2023/10/12 07:03:00;;;;;;;1.60;0.90;;;20.00;1.00;;;;;;5112378;28;20838;-59
2023/10/12 07:05:33;;;;;;;3.13;0.90;;;20.10;1.00;;;;;;5103574;27;20539;-60
2023/10/12 07:08:02;;;;;;;2.00;1.00;;;20.10;1.00;;;;;;5103164;28;21031;-60
2023/10/12 07:10:29;;;;;;;2.30;1.00;;;20.20;1.00;;;;;;5107769;28;20512;-61
2023/10/12 07:13:00;;;;;;;2.78;1.38;;;20.20;1.00;;;;;;5098706;28;20577;-59
2023/10/12 07:15:33;;;;;;;2.80;0.70;;;20.30;1.00;;;;;;5108456;27;20432;-60
2023/10/12 07:18:07;;;;;;;1.80;0.80;;;20.30;1.00;;;;;;5108111;28;20477;-60
2023/10/12 07:20:46;;;;;;;2.53;1.17;;;20.40;1.00;;;;;;5102786;28;20430;-60
2023/10/12 07:23:17;;;;;;;1.67;0.90;;;20.50;1.00;;;;;;5108028;28;20781;-60
2023/10/12 07:25:48;;;;;;;2.55;0.90;;;20.50;1.00;;;;;;5096134;28;20438;-60
2023/10/12 07:28:25;;;;;;;3.90;0.90;;;20.60;1.00;;;;;;5110740;28;20431;-59
2023/10/12 07:33:59;;;;;;;1.50;0.80;;;20.60;1.00;;;;;;5079478;28;20409;-59
2023/10/12 07:36:44;;;;;;;2.40;0.90;;;20.60;1.00;;;;;;5106419;28;21000;-59
2023/10/12 07:39:17;;;;;;;1.10;0.70;;;20.60;1.00;;;;;;5111943;28;20439;-59
2023/10/12 07:41:53;;;;;;;1.20;0.70;;;20.60;1.00;;;;;;5106127;28;21011;-59
2023/10/12 07:44:22;;;;;;;1.60;0.90;;;20.60;1.00;;;;;;5109299;28;20432;-60
2023/10/12 07:46:49;;;;;;;2.05;0.80;;;20.50;1.00;;;;;;5112451;28;20511;-60
2023/10/12 07:49:37;;;;;;;2.70;0.80;;;20.50;1.00;;;;;;5109834;28;20485;-59
2023/10/12 07:52:09;;;;;;;2.10;0.90;;;20.50;1.00;;;;;;5101632;28;20440;-59
2023/10/12 07:54:57;;;;;;;1.80;0.70;;;20.60;1.00;;;;;;5104974;27;20760;-61
2023/10/12 07:57:29;;;;;;;1.85;0.75;;;20.60;1.00;;;;;;5110222;28;20461;-61
2023/10/12 08:00:18;;;;;;;1.80;0.80;;;20.50;1.00;;;;;;5111842;28;20484;-60
2023/10/12 08:03:06;;;;;;;1.40;0.80;;;20.50;1.00;;;;;;5102669;28;20431;-60
2023/10/12 08:05:46;;;;;;;2.10;0.70;;;20.50;1.00;;;;;;5091822;28;20425;-61
2023/10/12 08:08:33;;;;;;;1.90;0.80;;;20.50;1.00;;;;;;5109192;28;20891;-62
2023/10/12 08:11:10;;;;;;;1.52;0.80;;;20.50;1.00;;;;;;5112588;28;20512;-62
2023/10/12 08:13:47;;;;;;;2.25;0.80;;;20.40;1.00;;;;;;5106259;28;20522;-61
2023/10/12 08:16:15;;;;;;;2.10;0.70;;;20.50;1.00;;;;;;5105032;28;20477;-61
2023/10/12 08:21:44;;;;;;;4.05;0.80;;;20.50;1.00;;;;;;5151429;27;20538;-61
2023/10/12 08:24:22;;;;;;;2.10;0.80;;;20.50;1.00;;;;;;5167796;27;20420;-59
2023/10/12 08:26:57;;;;;;;3.00;0.90;;;20.40;1.00;;;;;;5166540;27;20455;-60
2023/10/12 08:32:12;;;;;;;1.40;0.75;;;20.40;1.00;;;;;;5163158;27;20866;-61
2023/10/12 08:35:10;;;;;;;1.80;0.90;;;20.40;1.00;;;;;;5171687;27;20521;-60
2023/10/12 08:37:36;;;;;;;2.55;0.70;;;20.40;1.00;;;;;;5148879;27;20406;-60
2023/10/12 08:40:18;;;;;;;2.70;0.90;;;20.40;1.00;;;;;;5160043;27;20411;-60
2023/10/12 08:42:55;;;;;;;1.90;0.80;;;20.40;1.00;;;;;;5156979;27;20461;-61
2023/10/12 08:45:26;;;;;;;2.13;0.80;;;20.40;1.00;;;;;;5169990;27;20407;-61
2023/10/12 08:47:54;;;;;;;2.00;0.80;;;20.40;1.00;;;;;;5166791;27;20558;-60
2023/10/12 08:53:09;;;;;;;3.90;0.80;;;20.40;1.00;;;;;;5161574;27;20506;-61
2023/10/12 08:55:37;;;;;;;1.80;0.70;;;20.40;1.00;;;;;;5159142;27;20849;-61
2023/10/12 08:58:18;;;;;;;1.47;0.80;;;20.40;1.00;;;;;;5172951;27;20459;-60
2023/10/12 09:01:07;;;;;;;1.60;0.80;;;20.30;1.00;;;;;;5158627;27;20437;-61
2023/10/12 09:03:38;;;;;;;2.95;0.75;;;20.30;1.00;;;;;;5152079;27;20453;-60
2023/10/12 09:06:29;;;;;;;5.20;0.98;;;20.30;1.00;;;;;;5151972;27;20421;-62
2023/10/12 09:08:57;;;;;;;3.78;0.70;;;20.30;1.00;;;;;;5164146;27;20467;-58
2023/10/12 09:11:29;;;;;;;2.53;0.80;;;20.40;1.00;;;;;;5163183;27;20977;-61
2023/10/12 09:13:58;;;;;;;2.50;0.90;;;20.40;1.00;;;;;;5158282;27;20719;-61
2023/10/12 09:16:26;;;;;;;3.10;0.80;;;20.40;1.00;;;;;;5167571;27;20423;-60
2023/10/12 09:18:59;;;;;;;1.80;0.70;;;20.30;1.00;;;;;;5168629;27;20420;-60
2023/10/12 09:21:39;;;;;;;2.20;0.80;;;20.40;1.00;;;;;;5165494;27;20452;-59
2023/10/12 09:24:14;;;;;;;2.25;0.73;;;20.30;1.00;;;;;;5161690;27;20535;-59
2023/10/12 09:26:49;;;;;;;1.70;0.70;;;20.40;1.00;;;;;;5167079;27;20443;-62
2023/10/12 09:29:23;;;;;;;3.10;0.80;;;20.40;1.00;;;;;;5161562;27;20416;-62
2023/10/12 09:32:13;;;;;;;2.38;0.95;;;20.40;1.00;;;;;;5153521;27;20433;-61
2023/10/12 09:34:46;;;;;;;1.80;0.80;;;20.50;1.00;;;;;;5145889;27;20869;-61
2023/10/12 09:37:17;;;;;;;3.65;0.90;;;20.60;1.00;;;;;;5149488;27;20515;-61
2023/10/12 09:39:46;;;;;;;2.63;0.80;;;20.60;1.00;;;;;;5148119;27;20428;-61
2023/10/12 09:42:23;;;;;;;1.47;0.80;;;20.70;1.00;;;;;;5151188;27;20456;-61
2023/10/12 09:45:01;;;;;;;2.70;0.90;;;20.80;1.00;;;;;;5154780;27;20495;-61
2023/10/12 09:47:43;;;;;;;3.15;0.80;;;20.80;1.00;;;;;;5150146;27;20452;-61
2023/10/12 09:50:16;;;;;;;2.13;0.80;;;20.80;1.00;;;;;;5146040;27;20428;-60
2023/10/12 09:52:57;;;;;;;2.05;0.82;;;20.90;1.00;;;;;;5153526;27;20498;-61
2023/10/12 09:55:32;;;;;;;4.10;0.90;;;20.80;1.00;;;;;;5148022;27;20535;-61
2023/10/12 09:58:13;;;;;;;1.70;0.90;;;20.70;1.00;;;;;;5142739;27;21830;-61
2023/10/12 10:01:01;;;;;;;1.95;0.80;;;20.80;1.00;;;;;;5152633;27;20428;-61
2023/10/12 10:03:36;;;;;;;2.10;0.80;;;20.80;1.00;;;;;;5152612;27;20421;-61
2023/10/12 10:06:19;;;;;;;2.67;0.80;;;20.90;1.00;;;;;;5150965;27;20447;-61
2023/10/12 10:09:03;;;;;;;4.70;0.90;;;20.90;1.00;;;;;;5155134;27;20715;-61
2023/10/12 10:11:31;;;;;;;2.10;0.70;;;21.00;1.00;;;;;;5153816;27;20444;-62
2023/10/12 10:13:58;;;;;;;2.30;0.75;;;21.10;1.00;;;;;;5152783;27;20733;-60
2023/10/12 10:16:42;;;;;;;2.85;0.80;;;21.10;1.00;;;;;;5149769;27;20523;-60
2023/10/12 10:19:15;;;;;;;1.50;0.80;;;21.20;1.00;;;;;;5149101;27;21009;-62
2023/10/12 10:21:50;;;;;;;2.20;0.80;;;21.20;1.00;;;;;;5150498;27;20428;-62
2023/10/12 10:24:25;;;;;;;2.20;0.80;;;21.30;1.00;;;;;;5150926;27;20448;-60
2023/10/12 10:27:09;;;;;;;3.33;0.85;;;21.40;1.00;;;;;;5152848;27;20432;-61
2023/10/12 10:29:52;;;;;;;1.27;0.70;;;21.40;1.00;;;;;;5154178;27;20424;-61
2023/10/12 10:32:23;;;;;;;2.60;0.80;;;21.50;1.00;;;;;;5149779;27;20471;-61
2023/10/12 10:34:56;;;;;;;2.10;1.10;;;21.40;1.00;;;;;;5152472;27;20712;-61
2023/10/12 10:37:47;;;;;;;1.70;0.90;;;21.50;1.00;;;;;;5154946;27;20420;-61
2023/10/12 10:40:18;;;;;;;2.92;1.00;;;21.50;1.00;;;;;;5144078;27;20517;-60
2023/10/12 10:42:57;;;;;;;2.20;0.80;;;21.50;1.00;;;;;;5147801;27;20470;-61
2023/10/12 10:45:26;;;;;;;1.63;0.80;;;21.50;1.00;;;;;;5134620;27;20454;-60
2023/10/12 10:47:56;;;;;;;2.38;1.08;;;21.50;1.00;;;;;;5142822;27;20433;-60
2023/10/12 10:50:24;;;;;;;3.03;1.00;;;21.50;1.00;;;;;;5145030;27;20483;-61
2023/10/12 10:52:59;;;;;;;3.20;0.80;;;21.50;1.00;;;;;;5143871;27;20446;-60
2023/10/12 10:55:31;;;;;;;2.63;0.80;;;21.50;1.00;;;;;;5139433;27;20417;-60
2023/10/12 10:58:00;;;;;;;1.95;0.90;;;21.50;1.00;;;;;;5153207;27;20500;-61
2023/10/12 11:00:37;;;;;;;2.60;0.90;;;21.50;1.00;;;;;;5154674;27;20424;-61
2023/10/12 11:03:05;;;;;;;2.88;0.80;;;21.50;1.00;;;;;;5152714;27;20464;-61
2023/10/12 11:05:37;;;;;;;3.40;0.90;;;21.50;1.00;;;;;;5154519;27;20435;-62
2023/10/12 11:08:19;;;;;;;2.40;1.00;;;21.60;1.00;;;;;;5151463;27;20448;-62
2023/10/12 11:13:32;;;;;;;2.25;0.80;;;21.90;1.00;;;;;;5149354;27;20416;-63
2023/10/12 11:15:58;;;;;;;2.60;1.10;;;21.90;1.00;;;;;;5149670;27;20424;-60
2023/10/12 11:18:26;;;;;;;1.90;0.90;;;21.90;1.00;;;;;;5151366;27;20433;-61
2023/10/12 11:21:00;;;;;;;2.80;1.00;;;22.00;1.00;;;;;;5150846;27;20425;-61
2023/10/12 11:23:27;;;;;;;1.42;0.80;;;22.00;1.00;;;;;;5151774;27;20476;-61
2023/10/12 11:26:05;;;;;;;2.53;0.90;;;22.10;1.00;;;;;;5147997;27;20417;-61
2023/10/12 11:28:33;;;;;;;2.50;0.80;;;22.10;1.00;;;;;;5150879;27;20444;-62
2023/10/12 11:31:20;;;;;;;1.95;0.95;;;22.20;1.00;;;;;;5153371;27;20861;-63
2023/10/12 11:33:49;;;;;;;2.10;0.90;;;22.20;1.00;;;;;;5154629;27;20460;-61
2023/10/12 11:36:22;;;;;;;1.90;0.80;;;22.30;1.00;;;;;;5154964;27;20421;-61
2023/10/12 11:39:00;;;;;;;2.37;0.93;;;22.30;1.00;;;;;;5152862;27;20475;-61
2023/10/12 11:41:29;;;;;;;4.50;1.20;;;22.40;1.00;;;;;;5152280;27;20416;-61
2023/10/12 11:43:57;;;;;;;2.35;1.10;;;22.60;1.00;;;;;;5153028;27;20423;-61
2023/10/12 11:46:26;;;;;;;3.60;1.20;;;22.60;1.00;;;;;;5152609;27;20488;-61
2023/10/12 11:49:04;;;;;;;2.60;0.90;;;22.60;1.00;;;;;;5151274;27;20769;-62
2023/10/12 11:51:31;;;;;;;1.67;0.80;;;22.70;1.00;;;;;;5152749;27;20826;-61
2023/10/12 11:53:58;;;;;;;2.55;0.90;;;22.80;1.00;;;;;;5154291;27;20903;-61
2023/10/12 11:56:26;;;;;;;2.38;1.00;;;22.80;1.00;;;;;;5153057;27;20428;-61
2023/10/12 11:58:55;;;;;;;2.27;0.90;;;22.90;1.00;;;;;;5153861;27;20428;-61
2023/10/12 12:01:27;;;;;;;4.60;1.00;;;23.00;1.00;;;;;;5152306;27;20431;-61
2023/10/12 12:03:55;;;;;;;1.92;0.88;;;23.10;1.00;;;;;;5152045;27;20417;-62
2023/10/12 12:06:26;;;;;;;2.00;1.00;;;23.20;1.00;;;;;;5151867;27;20424;-61
2023/10/12 12:08:59;;;;;;;1.20;0.80;;;23.30;1.00;;;;;;5151497;27;20409;-61
2023/10/12 12:11:31;;;;;;;3.30;0.90;;;23.40;1.00;;;;;;5150612;27;20430;-61
2023/10/12 12:14:00;;;;;;;2.20;0.80;;;23.40;1.00;;;;;;5150513;27;20424;-61
2023/10/12 12:16:27;;;;;;;1.60;0.80;;;23.30;1.00;;;;;;5150920;27;20413;-61
2023/10/12 12:18:54;;;;;;;1.40;0.80;;;23.30;1.00;;;;;;5147441;27;20433;-61
2023/10/12 12:21:30;;;;;;;1.73;0.73;;;23.20;1.00;;;;;;5151667;27;20808;-61
2023/10/12 12:24:00;;;;;;;1.80;0.80;;;23.00;1.00;;;;;;5150567;27;20421;-61
2023/10/12 12:26:33;;;;;;;2.53;0.90;;;23.00;1.00;;;;;;5152941;27;20515;-62
2023/10/12 12:29:05;;;;;;;2.40;0.90;;;23.00;1.00;;;;;;5153807;27;20417;-61
2023/10/12 12:31:32;;;;;;;4.60;0.90;;;22.90;1.00;;;;;;5153549;27;20456;-61
2023/10/12 12:34:01;;;;;;;2.55;0.90;;;22.70;1.00;;;;;;5153960;27;20455;-61
2023/10/12 12:36:30;;;;;;;4.30;1.10;;;22.70;1.00;;;;;;5153831;27;20420;-61
2023/10/12 12:39:00;;;;;;;1.70;0.80;;;22.60;1.00;;;;;;5150909;27;20565;-60
2023/10/12 12:41:29;;;;;;;1.73;1.00;;;22.60;1.00;;;;;;5153488;27;20458;-60
2023/10/12 12:43:58;;;;;;;2.25;0.80;;;22.60;1.00;;;;;;5152807;27;20428;-60
2023/10/12 12:46:29;;;;;;;2.70;1.10;;;22.70;1.00;;;;;;5152850;27;20539;-62
2023/10/12 12:48:56;;;;;;;1.80;0.90;;;22.70;1.00;;;;;;5154194;27;20408;-61
2023/10/12 12:51:24;;;;;;;1.50;0.90;;;22.70;1.00;;;;;;5152573;27;20423;-61
2023/10/12 12:53:52;;;;;;;1.43;0.90;;;22.70;1.00;;;;;;5153502;27;20703;-63
2023/10/12 12:56:21;;;;;;;2.70;1.00;;;22.70;1.00;;;;;;5153310;27;20424;-62
2023/10/12 12:58:51;;;;;;;3.17;0.90;;;22.70;1.00;;;;;;5152482;27;20429;-63
2023/10/12 13:01:23;;;;;;;2.20;0.90;;;22.60;1.00;;;;;;5153701;27;20463;-61
2023/10/12 13:03:55;;;;;;;4.70;0.90;;;22.40;1.00;;;;;;5154968;27;20459;-61
2023/10/12 13:06:22;;;;;;;1.58;0.80;;;22.30;1.00;;;;;;5156692;27;20424;-62
2023/10/12 13:08:49;;;;;;;2.30;0.90;;;22.30;1.00;;;;;;5155258;27;20629;-62
2023/10/12 13:11:20;;;;;;;3.38;0.80;;;22.30;1.00;;;;;;5155508;27;20413;-62
2023/10/12 13:13:47;;;;;;;2.63;0.95;;;22.20;1.00;;;;;;5156442;27;20706;-61
2023/10/12 13:16:15;;;;;;;4.10;0.90;;;22.10;1.00;;;;;;5156680;27;20455;-63
2023/10/12 13:18:46;;;;;;;2.20;1.10;;;22.10;1.00;;;;;;5156162;27;20431;-63
2023/10/12 13:21:15;;;;;;;2.20;1.00;;;22.10;1.00;;;;;;5156717;27;20465;-62
2023/10/12 13:23:42;;;;;;;1.80;0.90;;;22.10;1.00;;;;;;5156914;27;20456;-62
2023/10/12 13:26:10;;;;;;;2.60;0.90;;;22.10;1.00;;;;;;5156420;27;20448;-63
2023/10/12 13:28:38;;;;;;;4.13;0.90;;;22.20;1.00;;;;;;5154725;27;20404;-62
2023/10/12 13:31:06;;;;;;;2.00;0.90;;;22.30;1.00;;;;;;5156887;27;20704;-64
2023/10/12 13:33:34;;;;;;;3.42;1.20;;;22.50;1.00;;;;;;5157117;27;20527;-62
2023/10/12 13:36:02;;;;;;;2.70;1.00;;;22.60;1.00;;;;;;5157686;27;20808;-62
2023/10/12 13:38:33;;;;;;;1.20;0.80;;;22.70;1.00;;;;;;5156282;27;20527;-62
2023/10/12 13:41:02;;;;;;;1.70;0.80;;;22.80;1.00;;;;;;5154310;27;20628;-62
2023/10/12 13:43:31;;;;;;;3.50;1.10;;;22.90;1.00;;;;;;5155847;27;20487;-61
2023/10/12 13:45:59;;;;;;;5.38;1.40;;;22.90;1.00;;;;;;5154016;27;20745;-62
2023/10/12 13:48:28;;;;;;;2.42;1.00;;;22.80;1.00;;;;;;5156720;27;20416;-62
2023/10/12 13:51:02;;;;;;;2.58;1.10;;;22.80;1.00;;;;;;5155841;27;20421;-62
2023/10/12 13:53:36;;;;;;;2.00;1.10;;;22.70;1.00;;;;;;5152782;27;20468;-62